createdAt,value
2023-05-21T00:00:18.782Z,14.39
2023-05-21T00:02:47.000Z,14.40
2023-05-21T00:05:17.117Z,14.39
2023-05-21T00:07:47.338Z,14.42
2023-05-21T00:10:18.768Z,14.45
2023-05-21T00:12:52.695Z,14.50
2023-05-21T00:15:22.573Z,14.57
2023-05-21T00:17:51.007Z,14.62
2023-05-21T00:20:19.154Z,14.56
2023-05-21T00:22:48.397Z,14.57
2023-05-21T00:25:16.289Z,14.62
2023-05-21T00:27:44.440Z,14.63
2023-05-21T00:30:14.115Z,14.70
2023-05-21T00:32:42.054Z,14.70
2023-05-21T00:35:10.796Z,14.54
2023-05-21T00:37:38.928Z,14.78
2023-05-21T00:40:09.535Z,14.75
2023-05-21T00:42:39.959Z,14.75
2023-05-21T00:45:09.201Z,14.74
2023-05-21T00:47:39.373Z,14.74
2023-05-21T00:50:08.276Z,14.70
2023-05-21T00:52:42.062Z,14.64
2023-05-21T00:55:11.386Z,14.59
2023-05-21T00:57:40.695Z,14.55
2023-05-21T01:00:10.951Z,14.53
2023-05-21T01:02:40.786Z,14.52
2023-05-21T01:05:09.281Z,14.51
2023-05-21T01:07:39.060Z,14.51
2023-05-21T01:10:09.086Z,14.50
2023-05-21T01:12:37.302Z,14.52
2023-05-21T01:15:06.431Z,14.54
2023-05-21T01:17:34.599Z,14.57
2023-05-21T01:20:09.990Z,14.54
2023-05-21T01:22:39.703Z,14.64
2023-05-21T01:25:10.232Z,14.69
2023-05-21T01:27:38.273Z,14.74
2023-05-21T01:30:07.352Z,14.79
2023-05-21T01:32:42.688Z,14.81
2023-05-21T01:35:12.876Z,14.87
2023-05-21T01:37:46.303Z,14.89
2023-05-21T01:40:17.981Z,14.88
2023-05-21T01:42:46.871Z,14.86
2023-05-21T01:45:16.057Z,14.83
2023-05-21T01:47:47.669Z,14.85
2023-05-21T01:50:16.478Z,14.85
2023-05-21T01:52:51.002Z,14.84
2023-05-21T01:55:24.811Z,14.77
2023-05-21T01:57:53.973Z,14.76
2023-05-21T02:00:22.187Z,14.66
2023-05-21T02:02:50.293Z,14.61
2023-05-21T02:05:18.460Z,14.62
2023-05-21T02:07:47.363Z,14.64
2023-05-21T02:10:15.977Z,14.76
2023-05-21T02:12:45.159Z,14.74
2023-05-21T02:15:14.457Z,14.69
2023-05-21T02:17:42.514Z,14.63
2023-05-21T02:20:12.198Z,14.55
2023-05-21T02:22:40.403Z,14.41
2023-05-21T02:25:09.901Z,14.29
2023-05-21T02:27:38.349Z,14.16
2023-05-21T02:30:09.389Z,14.10
2023-05-21T02:32:37.396Z,14.07
2023-05-21T02:35:06.305Z,14.00
2023-05-21T02:37:35.251Z,13.98
2023-05-21T02:40:04.308Z,13.82
2023-05-21T02:42:32.206Z,13.83
2023-05-21T02:44:59.960Z,13.74
2023-05-21T02:47:29.208Z,13.68
2023-05-21T02:49:56.984Z,13.70
2023-05-21T02:52:24.926Z,13.75
2023-05-21T02:54:53.004Z,13.76
2023-05-21T02:57:21.055Z,13.76
2023-05-21T02:59:48.901Z,13.75
2023-05-21T03:02:16.725Z,13.76
2023-05-21T03:04:47.005Z,13.77
2023-05-21T03:07:15.225Z,13.79
2023-05-21T03:09:43.180Z,13.82
2023-05-21T03:12:11.369Z,13.84
2023-05-21T03:14:39.323Z,13.87
2023-05-21T03:17:07.208Z,13.89
2023-05-21T03:19:36.064Z,13.92
2023-05-21T03:22:05.707Z,13.87
2023-05-21T03:24:33.600Z,14.05
2023-05-21T03:27:02.131Z,14.10
2023-05-21T03:29:30.265Z,14.16
2023-05-21T03:31:58.164Z,14.22
2023-05-21T03:34:26.037Z,14.27
2023-05-21T03:36:53.814Z,14.29
2023-05-21T03:39:23.016Z,14.30
2023-05-21T03:41:50.839Z,14.31
2023-05-21T03:44:18.649Z,14.31
2023-05-21T03:46:46.477Z,14.35
2023-05-21T03:49:14.849Z,14.38
2023-05-21T03:51:42.635Z,14.45
2023-05-21T03:54:10.465Z,14.52
2023-05-21T03:56:39.590Z,14.62
2023-05-21T03:59:07.434Z,14.69
2023-05-21T04:01:35.220Z,14.74
2023-05-21T04:04:03.307Z,14.82
2023-05-21T04:06:31.248Z,14.95
2023-05-21T04:08:59.007Z,15.04
2023-05-21T04:11:27.230Z,15.12
2023-05-21T04:13:56.407Z,15.18
2023-05-21T04:16:24.710Z,15.25
2023-05-21T04:18:55.487Z,15.32
2023-05-21T04:21:23.414Z,15.34
2023-05-21T04:23:53.939Z,15.38
2023-05-21T04:26:22.842Z,15.38
2023-05-21T04:28:50.697Z,15.42
2023-05-21T04:31:19.863Z,15.43
2023-05-21T04:33:47.628Z,15.48
2023-05-21T04:36:17.470Z,15.47
2023-05-21T04:38:45.237Z,15.50
2023-05-21T04:41:14.912Z,15.52
2023-05-21T04:43:44.067Z,15.56
2023-05-21T04:46:11.980Z,15.61
2023-05-21T04:48:41.137Z,15.60
2023-05-21T04:51:08.962Z,15.56
2023-05-21T04:53:36.729Z,15.52
2023-05-21T04:56:04.619Z,15.52
2023-05-21T04:58:34.299Z,15.50
2023-05-21T05:01:03.317Z,15.50
2023-05-21T05:03:31.431Z,15.50
2023-05-21T05:06:01.476Z,15.50
2023-05-21T05:08:29.285Z,15.50
2023-05-21T05:10:57.232Z,15.38
2023-05-21T05:13:25.010Z,15.48
2023-05-21T05:18:22.326Z,15.46
2023-05-21T05:20:50.118Z,15.49
2023-05-21T05:23:19.301Z,15.56
2023-05-21T05:25:47.060Z,15.66
2023-05-21T05:28:14.869Z,15.77
2023-05-21T05:30:42.732Z,15.85
2023-05-21T05:33:11.565Z,15.97
2023-05-21T05:35:39.404Z,15.98
2023-05-21T05:38:08.971Z,16.06
2023-05-21T05:40:38.221Z,16.14
2023-05-21T05:43:06.088Z,16.24
2023-05-21T05:45:34.103Z,16.35
2023-05-21T05:48:02.209Z,16.42
2023-05-21T05:50:30.119Z,16.48
2023-05-21T05:52:57.920Z,16.55
2023-05-21T05:55:26.810Z,16.63
2023-05-21T05:57:56.096Z,16.71
2023-05-21T06:00:23.959Z,16.82
2023-05-21T06:02:51.901Z,16.91
2023-05-21T06:05:19.844Z,17.03
2023-05-21T06:07:47.638Z,17.14
2023-05-21T06:10:15.513Z,17.25
2023-05-21T06:12:43.416Z,17.34
2023-05-21T06:15:14.949Z,17.47
2023-05-21T06:17:42.776Z,17.61
2023-05-21T06:20:11.414Z,17.76
2023-05-21T06:22:39.191Z,17.78
2023-05-21T06:25:08.152Z,17.89
2023-05-21T06:27:35.954Z,17.89
2023-05-21T06:30:03.851Z,18.02
2023-05-21T06:32:33.195Z,18.10
2023-05-21T06:35:01.216Z,18.12
2023-05-21T06:37:29.047Z,17.81
2023-05-21T06:39:56.863Z,17.62
2023-05-21T06:42:24.628Z,17.44
2023-05-21T06:44:52.448Z,17.37
2023-05-21T06:47:20.232Z,17.06
2023-05-21T06:49:49.355Z,17.03
2023-05-21T06:52:17.142Z,17.02
2023-05-21T06:54:44.965Z,17.07
2023-05-21T06:57:12.815Z,17.22
2023-05-21T06:59:40.850Z,17.45
2023-05-21T07:02:09.031Z,17.60
2023-05-21T07:04:37.025Z,17.77
2023-05-21T07:07:06.712Z,17.94
2023-05-21T07:09:34.935Z,18.16
2023-05-21T07:12:03.495Z,18.38
2023-05-21T07:14:31.380Z,18.63
2023-05-21T07:16:59.380Z,18.69
2023-05-21T07:19:27.434Z,18.72
2023-05-21T07:21:56.756Z,18.95
2023-05-21T07:24:27.619Z,19.10
2023-05-21T07:26:55.426Z,19.41
2023-05-21T07:29:23.793Z,19.61
2023-05-21T07:31:51.987Z,19.91
2023-05-21T07:34:19.754Z,20.04
2023-05-21T07:36:48.010Z,20.19
2023-05-21T07:39:16.014Z,20.04
2023-05-21T07:41:45.545Z,20.16
2023-05-21T07:44:13.405Z,20.34
2023-05-21T07:46:41.810Z,20.62
2023-05-21T07:49:20.825Z,20.79
2023-05-21T07:51:48.677Z,20.87
2023-05-21T07:54:16.657Z,21.08
2023-05-21T07:56:45.906Z,21.11
2023-05-21T07:59:15.321Z,20.87
2023-05-21T08:01:43.753Z,21.04
2023-05-21T08:04:11.682Z,21.24
2023-05-21T08:06:39.655Z,21.39
2023-05-21T08:09:08.090Z,21.36
2023-05-21T08:11:35.874Z,21.45
2023-05-21T08:14:05.120Z,21.71
2023-05-21T08:16:32.929Z,21.78
2023-05-21T08:19:00.905Z,21.67
2023-05-21T08:21:28.711Z,21.72
2023-05-21T08:23:57.246Z,21.17
2023-05-21T08:26:25.125Z,21.05
2023-05-21T08:28:52.991Z,20.81
2023-05-21T08:31:22.352Z,20.74
2023-05-21T08:33:53.447Z,20.88
2023-05-21T08:36:21.408Z,20.92
2023-05-21T08:38:49.204Z,21.09
2023-05-21T08:41:18.113Z,21.02
2023-05-21T08:43:50.184Z,21.05
2023-05-21T08:46:19.968Z,20.83
2023-05-21T08:48:49.408Z,20.79
2023-05-21T08:51:18.013Z,20.61
2023-05-21T08:53:46.385Z,20.44
2023-05-21T08:56:15.358Z,20.45
2023-05-21T08:58:43.757Z,20.39
2023-05-21T09:01:12.517Z,20.39
2023-05-21T09:03:41.911Z,20.45
2023-05-21T09:06:14.148Z,20.41
2023-05-21T09:08:45.533Z,20.41
2023-05-21T09:11:13.331Z,20.38
2023-05-21T09:13:41.755Z,20.40
2023-05-21T09:16:11.093Z,20.71
2023-05-21T09:18:38.913Z,20.97
2023-05-21T09:21:26.458Z,21.16
2023-05-21T09:23:56.449Z,21.21
2023-05-21T09:26:24.632Z,21.30
2023-05-21T09:28:52.655Z,21.66
2023-05-21T09:31:22.711Z,21.83
2023-05-21T09:33:50.936Z,22.10
2023-05-21T09:36:20.202Z,22.07
2023-05-21T09:38:49.611Z,22.03
2023-05-21T09:41:21.144Z,22.05
2023-05-21T09:43:50.142Z,22.07
2023-05-21T09:46:27.409Z,21.87
2023-05-21T09:48:55.269Z,21.78
2023-05-21T09:51:23.080Z,21.80
2023-05-21T09:53:54.182Z,21.90
2023-05-21T09:56:24.609Z,21.78
2023-05-21T09:58:54.754Z,21.76
2023-05-21T10:01:23.112Z,21.89
2023-05-21T10:03:54.055Z,21.76
2023-05-21T10:06:22.049Z,21.83
2023-05-21T10:08:50.374Z,21.97
2023-05-21T10:11:21.368Z,22.18
2023-05-21T10:13:52.239Z,22.31
2023-05-21T10:16:20.484Z,22.53
2023-05-21T10:18:49.657Z,22.75
2023-05-21T10:21:18.209Z,22.74
2023-05-21T10:23:46.830Z,22.82
2023-05-21T10:26:15.089Z,22.96
2023-05-21T10:28:44.517Z,23.18
2023-05-21T10:31:12.640Z,23.32
2023-05-21T10:33:40.943Z,23.42
2023-05-21T10:36:08.830Z,23.25
2023-05-21T10:38:37.523Z,23.34
2023-05-21T10:41:06.725Z,22.96
2023-05-21T10:43:45.009Z,22.84
2023-05-21T10:46:47.057Z,22.85
2023-05-21T10:49:36.729Z,23.00
2023-05-21T10:52:10.191Z,23.08
2023-05-21T10:55:00.829Z,23.20
2023-05-21T10:57:47.876Z,23.22
2023-05-21T11:00:20.493Z,23.32
2023-05-21T11:02:49.324Z,23.79
2023-05-21T11:05:17.145Z,24.31
2023-05-21T11:07:56.432Z,24.77
2023-05-21T11:10:38.423Z,25.07
2023-05-21T11:13:08.289Z,25.41
2023-05-21T11:16:16.109Z,26.01
2023-05-21T11:19:00.419Z,26.61
2023-05-21T11:21:31.508Z,26.92
2023-05-21T11:24:08.359Z,27.21
2023-05-21T11:27:04.965Z,26.67
2023-05-21T11:29:47.181Z,27.01
2023-05-21T11:32:20.720Z,27.22
2023-05-21T11:34:49.266Z,27.19
2023-05-21T11:37:34.630Z,26.72
2023-05-21T11:40:23.900Z,26.99
2023-05-21T11:42:53.190Z,27.32
2023-05-21T11:45:21.798Z,27.02
2023-05-21T11:47:52.111Z,26.91
2023-05-21T11:50:20.833Z,26.87
2023-05-21T11:52:50.051Z,27.10
2023-05-21T11:55:22.776Z,27.27
2023-05-21T11:57:54.483Z,27.42
2023-05-21T12:00:23.162Z,27.40
2023-05-21T12:02:54.567Z,27.48
2023-05-21T12:05:22.954Z,27.61
2023-05-21T12:07:51.071Z,27.90
2023-05-21T12:10:22.144Z,28.27
2023-05-21T12:12:54.930Z,28.44
2023-05-21T12:15:24.917Z,27.73
2023-05-21T12:17:54.257Z,27.88
2023-05-21T12:20:22.290Z,28.06
2023-05-21T12:22:50.146Z,27.54
2023-05-21T12:25:20.155Z,27.25
2023-05-21T12:27:48.497Z,27.42
2023-05-21T12:30:16.449Z,27.26
2023-05-21T12:32:45.186Z,27.07
2023-05-21T12:35:23.977Z,27.22
2023-05-21T12:37:52.533Z,27.37
2023-05-21T12:40:21.134Z,27.31
2023-05-21T12:42:49.177Z,27.39
2023-05-21T12:45:18.801Z,27.17
2023-05-21T12:47:50.627Z,27.22
2023-05-21T12:50:23.668Z,27.48
2023-05-21T12:52:55.075Z,27.81
2023-05-21T12:55:24.071Z,28.33
2023-05-21T12:57:52.375Z,28.45
2023-05-21T13:00:24.856Z,27.87
2023-05-21T13:02:52.902Z,27.97
2023-05-21T13:05:20.772Z,27.74
2023-05-21T13:07:51.694Z,28.00
2023-05-21T13:10:19.553Z,28.47
2023-05-21T13:12:47.721Z,28.18
2023-05-21T13:15:15.836Z,28.40
2023-05-21T13:17:43.689Z,28.82
2023-05-21T13:20:13.123Z,28.91
2023-05-21T13:22:43.377Z,28.38
2023-05-21T13:25:15.671Z,28.63
2023-05-21T13:27:43.817Z,28.78
2023-05-21T13:30:14.512Z,28.43
2023-05-21T13:32:43.562Z,27.62
2023-05-21T13:35:12.203Z,27.42
2023-05-21T13:37:41.010Z,26.72
2023-05-21T13:40:11.431Z,26.72
2023-05-21T13:42:40.584Z,26.75
2023-05-21T13:45:09.865Z,27.17
2023-05-21T13:47:40.298Z,27.57
2023-05-21T13:50:09.730Z,27.85
2023-05-21T13:52:37.871Z,28.00
2023-05-21T13:55:06.650Z,27.61
2023-05-21T13:57:34.629Z,27.71
2023-05-21T14:00:04.892Z,27.59
2023-05-21T14:02:32.822Z,27.01
2023-05-21T14:05:00.886Z,26.92
2023-05-21T14:07:28.693Z,27.57
2023-05-21T14:09:56.810Z,27.75
2023-05-21T14:12:24.611Z,27.94
2023-05-21T14:14:52.440Z,28.08
2023-05-21T14:17:21.604Z,28.25
2023-05-21T14:19:49.371Z,27.61
2023-05-21T14:22:17.171Z,28.38
2023-05-21T14:24:44.956Z,29.08
2023-05-21T14:27:15.171Z,29.04
2023-05-21T14:29:43.207Z,29.13
2023-05-21T14:32:11.083Z,29.79
2023-05-21T14:34:40.517Z,30.02
2023-05-21T14:37:08.287Z,29.86
2023-05-21T14:39:36.301Z,29.67
2023-05-21T14:42:04.649Z,29.62
2023-05-21T14:44:32.774Z,29.50
2023-05-21T14:47:00.715Z,29.69
2023-05-21T14:49:28.522Z,29.30
2023-05-21T14:51:57.661Z,29.41
2023-05-21T14:54:25.505Z,28.59
2023-05-21T14:56:54.196Z,28.35
2023-05-21T14:59:22.048Z,28.03
2023-05-21T15:01:50.086Z,28.18
2023-05-21T15:04:18.050Z,28.35
2023-05-21T15:06:46.185Z,28.63
2023-05-21T15:09:15.508Z,28.30
2023-05-21T15:11:44.626Z,28.25
2023-05-21T15:14:12.514Z,28.27
2023-05-21T15:16:40.503Z,28.29
2023-05-21T15:19:08.544Z,28.13
2023-05-21T15:21:36.439Z,27.77
2023-05-21T15:24:04.638Z,28.11
2023-05-21T15:26:33.827Z,28.76
2023-05-21T15:29:02.922Z,28.99
2023-05-21T15:31:32.122Z,29.27
2023-05-21T15:34:00.430Z,29.09
2023-05-21T15:36:28.324Z,28.60
2023-05-21T15:38:56.112Z,28.45
2023-05-21T15:41:23.984Z,28.34
2023-05-21T15:43:53.331Z,28.48
2023-05-21T15:46:21.244Z,28.51
2023-05-21T15:48:49.032Z,28.65
2023-05-21T15:51:16.868Z,28.50
2023-05-21T15:53:44.778Z,28.11
2023-05-21T15:56:12.561Z,27.91
2023-05-21T15:58:40.320Z,28.17
2023-05-21T16:01:09.541Z,28.29
2023-05-21T16:03:37.451Z,28.31
2023-05-21T16:06:06.492Z,27.81
2023-05-21T16:08:34.389Z,27.44
2023-05-21T16:11:02.309Z,27.39
2023-05-21T16:13:30.125Z,27.41
2023-05-21T16:15:57.960Z,27.60
2023-05-21T16:18:27.093Z,27.58
2023-05-21T16:20:56.618Z,27.72
2023-05-21T16:23:24.590Z,27.69
2023-05-21T16:25:52.713Z,27.35
2023-05-21T16:28:21.044Z,27.21
2023-05-21T16:30:48.886Z,27.37
2023-05-21T16:33:17.233Z,27.69
2023-05-21T16:35:46.599Z,27.88
2023-05-21T16:38:14.430Z,27.95
2023-05-21T16:40:42.199Z,27.98
2023-05-21T16:43:09.996Z,28.12
2023-05-21T16:45:41.247Z,27.92
2023-05-21T16:48:09.331Z,27.83
2023-05-21T16:50:37.261Z,28.03
2023-05-21T16:53:07.697Z,27.95
2023-05-21T16:55:36.682Z,27.98
2023-05-21T16:58:06.620Z,27.93
2023-05-21T17:00:35.363Z,28.04
2023-05-21T17:03:03.321Z,27.87
2023-05-21T17:05:31.182Z,27.79
2023-05-21T17:07:58.969Z,27.25
2023-05-21T17:10:28.123Z,27.28
2023-05-21T17:12:57.246Z,27.46
2023-05-21T17:15:27.548Z,27.59
2023-05-21T17:17:55.544Z,27.64
2023-05-21T17:20:25.544Z,27.79
2023-05-21T17:22:53.363Z,27.82
2023-05-21T17:25:21.182Z,27.84
2023-05-21T17:27:52.675Z,27.76
2023-05-21T17:30:20.604Z,27.78
2023-05-21T17:32:48.499Z,27.81
2023-05-21T17:35:17.419Z,27.71
2023-05-21T17:37:45.365Z,27.72
2023-05-21T17:40:13.850Z,27.69
2023-05-21T17:42:41.637Z,27.67
2023-05-21T17:45:11.797Z,27.66
2023-05-21T17:47:39.684Z,27.65
2023-05-21T17:50:09.055Z,27.57
2023-05-21T17:52:36.801Z,27.49
2023-05-21T17:55:05.257Z,27.47
2023-05-21T17:57:33.003Z,27.40
2023-05-21T18:00:00.792Z,27.35
2023-05-21T18:02:29.930Z,27.22
2023-05-21T18:04:57.747Z,27.14
2023-05-21T18:07:25.651Z,27.08
2023-05-21T18:09:53.435Z,26.92
2023-05-21T18:12:21.453Z,26.81
2023-05-21T18:14:49.418Z,26.71
2023-05-21T18:17:17.182Z,26.58
2023-05-21T18:19:46.310Z,26.43
2023-05-21T18:22:14.154Z,26.27
2023-05-21T18:24:41.898Z,26.16
2023-05-21T18:27:09.672Z,26.01
2023-05-21T18:29:37.817Z,25.86
2023-05-21T18:32:06.410Z,25.72
2023-05-21T18:34:34.216Z,25.62
2023-05-21T18:37:03.384Z,25.44
2023-05-21T18:39:31.153Z,25.28
2023-05-21T18:42:12.230Z,25.20
2023-05-21T18:44:41.076Z,25.02
2023-05-21T18:47:08.901Z,24.85
2023-05-21T18:49:36.755Z,24.71
2023-05-21T18:52:06.303Z,24.45
2023-05-21T18:54:34.122Z,24.51
2023-05-21T18:57:01.982Z,24.39
2023-05-21T18:59:31.294Z,24.28
2023-05-21T19:01:59.130Z,24.15
2023-05-21T19:04:27.441Z,24.03
2023-05-21T19:06:55.239Z,23.94
2023-05-21T19:09:24.408Z,23.86
2023-05-21T19:11:52.235Z,23.80
2023-05-21T19:14:21.051Z,23.69
2023-05-21T19:16:48.833Z,23.55
2023-05-21T19:19:16.686Z,23.45
2023-05-21T19:21:44.574Z,23.36
2023-05-21T19:24:12.835Z,23.31
2023-05-21T19:26:42.073Z,23.22
2023-05-21T19:29:11.035Z,23.17
2023-05-21T19:31:39.250Z,23.07
2023-05-21T19:34:10.722Z,22.97
2023-05-21T19:36:52.193Z,22.89
2023-05-21T19:39:21.209Z,22.78
2023-05-21T19:41:51.630Z,22.70
2023-05-21T19:44:19.499Z,22.59
2023-05-21T19:46:48.607Z,22.48
2023-05-21T19:49:16.423Z,22.43
2023-05-21T19:51:44.294Z,22.33
2023-05-21T19:54:12.100Z,22.30
2023-05-21T19:56:39.915Z,22.23
2023-05-21T19:59:09.049Z,22.18
2023-05-21T20:01:39.702Z,22.14
2023-05-21T20:04:07.726Z,22.08
2023-05-21T20:06:35.714Z,22.05
2023-05-21T20:09:03.535Z,22.03
2023-05-21T20:11:31.377Z,21.98
2023-05-21T20:13:59.255Z,21.96
2023-05-21T20:16:28.416Z,21.93
2023-05-21T20:18:56.911Z,21.89
2023-05-21T20:21:25.905Z,21.84
2023-05-21T20:23:54.438Z,21.75
2023-05-21T20:26:23.183Z,21.72
2023-05-21T20:28:50.963Z,21.68
2023-05-21T20:31:18.831Z,21.64
2023-05-21T20:33:50.468Z,21.61
2023-05-21T20:36:18.516Z,21.60
2023-05-21T20:38:47.223Z,21.61
2023-05-21T20:41:15.045Z,21.57
2023-05-21T20:43:45.305Z,21.51
2023-05-21T20:46:13.614Z,21.47
2023-05-21T20:48:41.822Z,21.43
2023-05-21T20:51:11.163Z,21.37
2023-05-21T20:53:38.958Z,21.35
2023-05-21T20:56:08.038Z,21.31
2023-05-21T20:58:36.149Z,21.30
2023-05-21T21:01:04.083Z,21.27
2023-05-21T21:03:34.295Z,21.21
2023-05-21T21:06:04.287Z,21.17
2023-05-21T21:08:34.793Z,21.19
2023-05-21T21:11:03.050Z,21.15
2023-05-21T21:13:30.993Z,21.13
2023-05-21T21:15:58.886Z,21.08
2023-05-21T21:18:26.673Z,20.79
2023-05-21T21:20:54.955Z,20.97
2023-05-21T21:23:25.356Z,20.95
2023-05-21T21:25:55.116Z,20.89
2023-05-21T21:28:23.457Z,20.81
2023-05-21T21:30:51.747Z,20.75
2023-05-21T21:33:19.593Z,20.71
2023-05-21T21:35:47.413Z,20.67
2023-05-21T21:38:15.208Z,20.59
2023-05-21T21:40:43.740Z,20.38
2023-05-21T21:43:13.181Z,20.18
2023-05-21T21:45:41.247Z,20.00
2023-05-21T21:48:09.107Z,19.87
2023-05-21T21:50:36.999Z,19.80
2023-05-21T21:53:05.951Z,19.75
2023-05-21T21:55:34.273Z,19.66
2023-05-21T21:58:02.431Z,19.59
2023-05-21T22:00:31.818Z,19.55
2023-05-21T22:02:59.761Z,19.49
2023-05-21T22:05:30.804Z,19.46
2023-05-21T22:07:58.619Z,19.43
2023-05-21T22:10:26.406Z,19.38
2023-05-21T22:12:54.472Z,19.34
2023-05-21T22:15:25.207Z,19.32
2023-05-21T22:17:55.628Z,19.24
2023-05-21T22:20:24.034Z,19.21
2023-05-21T22:22:53.617Z,19.14
2023-05-21T22:25:22.947Z,19.11
2023-05-21T22:27:50.755Z,19.09
2023-05-21T22:30:18.580Z,19.05
2023-05-21T22:32:46.491Z,19.03
2023-05-21T22:35:15.776Z,18.98
2023-05-21T22:37:43.661Z,18.93
2023-05-21T22:40:12.255Z,18.88
2023-05-21T22:42:41.702Z,18.86
2023-05-21T22:45:10.227Z,18.95
2023-05-21T22:47:39.564Z,18.97
2023-05-21T22:50:08.238Z,18.97
2023-05-21T22:52:38.194Z,18.97
2023-05-21T22:55:06.669Z,18.98
2023-05-21T22:57:34.668Z,18.97
2023-05-21T23:00:02.475Z,18.96
2023-05-21T23:02:30.370Z,18.86
2023-05-21T23:04:58.722Z,18.84
2023-05-21T23:07:26.747Z,18.75
2023-05-21T23:09:55.848Z,18.61
2023-05-21T23:12:23.616Z,18.55
2023-05-21T23:14:51.360Z,18.48
2023-05-21T23:17:19.821Z,18.37
2023-05-21T23:19:50.053Z,18.28
2023-05-21T23:22:17.971Z,18.26
2023-05-21T23:24:45.913Z,18.20
2023-05-21T23:27:16.242Z,18.21
2023-05-21T23:29:44.246Z,18.20
2023-05-21T23:32:11.980Z,18.22
2023-05-21T23:34:40.174Z,18.22
2023-05-21T23:37:08.188Z,18.23
2023-05-21T23:39:36.697Z,18.25
2023-05-21T23:42:04.591Z,18.27
2023-05-21T23:44:34.154Z,18.27
2023-05-21T23:47:01.990Z,18.26
2023-05-21T23:49:29.833Z,18.22
2023-05-21T23:51:58.093Z,18.20
2023-05-21T23:54:25.881Z,18.12
2023-05-21T23:56:53.790Z,18.06
2023-05-21T23:59:21.896Z,18.01
